Terminal Aerodrome Forecast
Issued by NWS Corpus Christi, TX

Current Version | Previous Version | Text Only | Print | Product List | Glossary On
Versions: 1 2 3 4 5 6 7 8 9 10 11 12 13 14 15 16 17 18
719
FTUS44 KCRP 140530
TAFVCT
TAF
KVCT 140530Z 1406/1506 10005KT 2SM BR BKN012
      TEMPO 1406/1410 1/4SM FG VV002
     FM141500 16013KT P6SM SCT025 BKN035
     FM141700 17018G25KT P6SM BKN045 BKN250
     FM150000 15012KT P6SM SCT035=

USA.gov is the U.S. government's official web portal to all federal, state and local government web resources and services.